createdAt,value
2022-11-15T00:00:12.788Z,15.80
2022-11-15T00:01:11.486Z,15.82
2022-11-15T00:02:11.177Z,15.82
2022-11-15T00:03:11.553Z,15.82
2022-11-15T00:04:11.086Z,15.87
2022-11-15T00:05:11.166Z,15.89
2022-11-15T00:06:11.481Z,15.90
2022-11-15T00:07:18.031Z,15.93
2022-11-15T00:08:11.406Z,15.95
2022-11-15T00:09:10.870Z,15.96
2022-11-15T00:10:11.128Z,15.96
2022-11-15T00:11:11.029Z,15.97
2022-11-15T00:12:11.215Z,15.99
2022-11-15T00:13:11.153Z,16.01
2022-11-15T00:14:11.452Z,16.03
2022-11-15T00:15:11.902Z,16.04
2022-11-15T00:16:11.075Z,16.04
2022-11-15T00:17:11.408Z,16.06
2022-11-15T00:18:10.754Z,16.06
2022-11-15T00:19:11.185Z,16.05
2022-11-15T00:20:11.639Z,16.08
2022-11-15T00:21:11.315Z,16.09
2022-11-15T00:22:11.681Z,16.08
2022-11-15T00:23:11.342Z,16.10
2022-11-15T00:24:11.577Z,16.11
2022-11-15T00:25:11.111Z,16.11
2022-11-15T00:26:11.424Z,16.13
2022-11-15T00:27:11.223Z,16.13
2022-11-15T00:28:11.135Z,16.11
2022-11-15T00:29:11.099Z,16.11
2022-11-15T00:30:11.733Z,16.12
2022-11-15T00:31:10.917Z,16.12
2022-11-15T00:32:10.982Z,16.14
2022-11-15T00:33:11.191Z,16.09
2022-11-15T00:34:11.266Z,16.09
2022-11-15T00:35:11.017Z,16.08
2022-11-15T00:36:11.260Z,16.08
2022-11-15T00:37:11.209Z,16.09
2022-11-15T00:38:11.333Z,16.08
2022-11-15T00:39:11.381Z,16.07
2022-11-15T00:40:11.370Z,16.09
2022-11-15T00:41:11.373Z,16.11
2022-11-15T00:42:11.560Z,16.11
2022-11-15T00:43:11.749Z,16.11
2022-11-15T00:44:11.006Z,16.09
2022-11-15T00:45:11.430Z,16.10
2022-11-15T00:46:11.817Z,16.11
2022-11-15T00:47:10.957Z,16.11
2022-11-15T00:48:11.014Z,16.11
2022-11-15T00:49:11.108Z,16.09
2022-11-15T00:50:16.470Z,16.09
2022-11-15T00:51:11.569Z,16.11
2022-11-15T00:52:11.518Z,16.11
2022-11-15T00:53:11.172Z,16.12
2022-11-15T00:54:11.511Z,16.11
2022-11-15T00:55:11.692Z,16.12
2022-11-15T00:56:10.940Z,16.15
2022-11-15T00:57:11.190Z,16.14
2022-11-15T00:58:10.928Z,16.13
2022-11-15T00:59:10.916Z,16.16
2022-11-15T01:00:11.894Z,16.16
2022-11-15T01:01:13.311Z,16.17
2022-11-15T01:02:11.485Z,16.18
2022-11-15T01:03:11.251Z,16.19
2022-11-15T01:04:11.507Z,16.19
2022-11-15T01:05:11.358Z,16.15
2022-11-15T01:06:11.394Z,16.17
2022-11-15T01:07:11.380Z,16.16
2022-11-15T01:08:11.108Z,16.18
2022-11-15T01:09:11.081Z,16.19
2022-11-15T01:10:11.430Z,16.20
2022-11-15T01:11:11.749Z,16.20
2022-11-15T01:12:11.131Z,16.23
2022-11-15T01:13:11.203Z,16.22
2022-11-15T01:14:25.686Z,16.24
2022-11-15T01:15:11.788Z,16.25
2022-11-15T01:16:10.855Z,16.26
2022-11-15T01:17:11.045Z,16.27
2022-11-15T01:18:25.761Z,16.27
2022-11-15T01:19:11.516Z,16.28
2022-11-15T01:20:10.832Z,16.29
2022-11-15T01:21:11.087Z,16.30
2022-11-15T01:22:11.049Z,16.30
2022-11-15T01:23:10.841Z,16.31
2022-11-15T01:24:11.071Z,16.31
2022-11-15T01:25:11.598Z,16.31
2022-11-15T01:26:11.605Z,16.30
2022-11-15T01:27:10.871Z,16.31
2022-11-15T01:28:11.125Z,16.32
2022-11-15T01:29:11.196Z,16.32
2022-11-15T01:30:11.702Z,16.32
2022-11-15T01:31:10.921Z,16.33
2022-11-15T01:32:11.219Z,16.35
2022-11-15T01:33:11.701Z,16.31
2022-11-15T01:34:11.202Z,16.31
2022-11-15T01:35:11.608Z,16.32
2022-11-15T01:36:10.877Z,16.32
2022-11-15T01:37:11.125Z,16.28
2022-11-15T01:38:11.063Z,16.26
2022-11-15T01:39:11.280Z,16.26
2022-11-15T01:40:11.265Z,16.26
2022-11-15T01:41:11.380Z,16.29
2022-11-15T01:42:10.829Z,16.31
2022-11-15T01:43:11.093Z,16.25
2022-11-15T01:44:11.272Z,16.27
2022-11-15T01:45:12.160Z,16.29
2022-11-15T01:46:11.279Z,16.30
2022-11-15T01:47:11.456Z,16.28
2022-11-15T01:48:10.870Z,16.26
2022-11-15T01:49:11.190Z,16.29
2022-11-15T01:50:11.198Z,16.29
2022-11-15T01:51:11.197Z,16.30
2022-11-15T01:52:11.410Z,16.31
2022-11-15T01:53:11.603Z,16.30
2022-11-15T01:54:11.155Z,16.31
2022-11-15T01:55:11.437Z,16.32
2022-11-15T01:56:11.233Z,16.33
2022-11-15T01:57:11.467Z,16.30
2022-11-15T01:58:11.013Z,16.31
2022-11-15T01:59:11.354Z,16.32
2022-11-15T02:00:11.372Z,16.30
2022-11-15T02:01:11.348Z,16.33
2022-11-15T02:02:11.366Z,16.33
2022-11-15T02:03:10.949Z,16.35
2022-11-15T02:04:11.662Z,16.38
2022-11-15T02:05:11.407Z,16.38
2022-11-15T02:06:11.611Z,16.37
2022-11-15T02:07:11.270Z,16.39
2022-11-15T02:08:11.691Z,16.39
2022-11-15T02:09:11.482Z,16.40
2022-11-15T02:10:11.176Z,16.39
2022-11-15T02:11:11.549Z,16.40
2022-11-15T02:12:10.907Z,16.40
2022-11-15T02:13:11.287Z,16.40
2022-11-15T02:14:11.030Z,16.40
2022-11-15T02:15:11.575Z,16.38
2022-11-15T02:16:11.103Z,16.36
2022-11-15T02:17:11.485Z,16.35
2022-11-15T02:18:11.360Z,16.32
2022-11-15T02:19:11.600Z,16.31
2022-11-15T02:20:11.096Z,16.32
2022-11-15T02:21:11.538Z,16.29
2022-11-15T02:22:11.075Z,16.30
2022-11-15T02:23:11.238Z,16.32
2022-11-15T02:24:11.025Z,16.32
2022-11-15T02:25:11.463Z,16.32
2022-11-15T02:26:11.003Z,16.32
2022-11-15T02:27:11.474Z,16.30
2022-11-15T02:28:11.182Z,16.29
2022-11-15T02:29:11.440Z,16.28
2022-11-15T02:30:12.199Z,16.27
2022-11-15T02:31:11.103Z,16.29
2022-11-15T02:32:11.390Z,16.27
2022-11-15T02:33:11.439Z,16.25
2022-11-15T02:34:11.803Z,16.26
2022-11-15T02:35:10.775Z,16.26
2022-11-15T02:36:10.897Z,16.25
2022-11-15T02:37:12.057Z,16.25
2022-11-15T02:38:10.743Z,16.24
2022-11-15T02:39:11.142Z,16.25
2022-11-15T02:40:11.405Z,16.22
2022-11-15T02:41:11.516Z,16.23
2022-11-15T02:42:11.388Z,16.26
2022-11-15T02:43:10.993Z,16.23
2022-11-15T02:44:10.874Z,16.22
2022-11-15T02:45:10.392Z,16.25
2022-11-15T02:46:11.103Z,16.26
2022-11-15T02:47:11.370Z,16.26
2022-11-15T02:48:11.523Z,16.26
2022-11-15T02:49:11.683Z,16.25
2022-11-15T02:50:11.065Z,16.27
2022-11-15T02:51:11.361Z,16.25
2022-11-15T02:52:11.246Z,16.25
2022-11-15T02:53:11.354Z,16.25
2022-11-15T02:54:11.782Z,16.25
2022-11-15T02:55:11.260Z,16.26
2022-11-15T02:56:11.378Z,16.28
2022-11-15T02:57:11.442Z,16.27
2022-11-15T02:58:10.850Z,16.29
2022-11-15T02:59:10.772Z,16.29
2022-11-15T03:00:11.441Z,16.27
2022-11-15T03:01:11.101Z,16.26
2022-11-15T03:02:11.453Z,16.29
2022-11-15T03:03:11.667Z,16.29
2022-11-15T03:04:10.808Z,16.32
2022-11-15T03:05:11.444Z,16.37
2022-11-15T03:06:11.042Z,16.34
2022-11-15T03:07:11.350Z,16.30
2022-11-15T03:08:11.688Z,16.26
2022-11-15T03:09:10.826Z,16.31
2022-11-15T03:10:11.205Z,16.29
2022-11-15T03:11:11.078Z,16.29
2022-11-15T03:12:11.280Z,16.30
2022-11-15T03:13:11.444Z,16.31
2022-11-15T03:14:10.749Z,16.29
2022-11-15T03:15:11.247Z,16.30
2022-11-15T03:16:11.549Z,16.31
2022-11-15T03:17:11.664Z,16.31
2022-11-15T03:18:10.729Z,16.32
2022-11-15T03:19:10.980Z,16.35
2022-11-15T03:20:11.278Z,16.37
2022-11-15T03:21:11.285Z,16.35
2022-11-15T03:22:11.459Z,16.37
2022-11-15T03:23:11.734Z,16.39
2022-11-15T03:24:11.529Z,16.41
2022-11-15T03:25:11.640Z,16.42
2022-11-15T03:26:10.815Z,16.42
2022-11-15T03:27:11.018Z,16.42
2022-11-15T03:28:11.357Z,16.43
2022-11-15T03:29:11.328Z,16.45
2022-11-15T03:30:11.574Z,16.45
2022-11-15T03:31:11.502Z,16.48
2022-11-15T03:32:10.819Z,16.51
2022-11-15T03:33:11.067Z,16.52
2022-11-15T03:34:11.312Z,16.51
2022-11-15T03:35:11.339Z,16.5
2022-11-15T03:36:11.294Z,16.50
2022-11-15T03:37:25.673Z,16.50
2022-11-15T03:38:11.402Z,16.49
2022-11-15T03:39:13.224Z,16.5
2022-11-15T03:40:11.649Z,16.49
2022-11-15T03:41:10.754Z,16.50
2022-11-15T03:42:10.821Z,16.53
2022-11-15T03:43:11.767Z,16.52
2022-11-15T03:44:10.681Z,16.52
2022-11-15T03:45:10.966Z,16.5
2022-11-15T03:46:11.228Z,16.47
2022-11-15T03:47:11.550Z,16.47
2022-11-15T03:48:11.003Z,16.47
2022-11-15T03:49:11.510Z,16.42
2022-11-15T03:50:11.724Z,16.44
2022-11-15T03:51:11.175Z,16.42
2022-11-15T03:52:11.359Z,16.40
2022-11-15T03:53:11.469Z,16.41
2022-11-15T03:54:11.802Z,16.38
2022-11-15T03:55:11.125Z,16.37
2022-11-15T03:56:11.445Z,16.39
2022-11-15T03:57:11.689Z,16.42
2022-11-15T03:58:10.768Z,16.44
2022-11-15T03:59:10.937Z,16.45
2022-11-15T04:00:11.807Z,16.49
2022-11-15T04:01:11.309Z,16.50
2022-11-15T04:02:11.008Z,16.47
2022-11-15T04:03:11.624Z,16.44
2022-11-15T04:04:10.787Z,16.40
2022-11-15T04:05:11.233Z,16.44
2022-11-15T04:06:11.593Z,16.45
2022-11-15T04:07:11.881Z,16.48
2022-11-15T04:08:10.752Z,16.49
2022-11-15T04:09:10.895Z,16.49
2022-11-15T04:10:11.358Z,16.50
2022-11-15T04:11:10.846Z,16.51
2022-11-15T04:12:11.282Z,16.48
2022-11-15T04:13:11.660Z,16.49
2022-11-15T04:14:10.805Z,16.49
2022-11-15T04:15:10.878Z,16.50
2022-11-15T04:16:11.068Z,16.51
2022-11-15T04:17:11.172Z,16.51
2022-11-15T04:18:11.153Z,16.5
2022-11-15T04:19:11.584Z,16.47
2022-11-15T04:20:11.128Z,16.48
2022-11-15T04:21:11.267Z,16.46
2022-11-15T04:22:11.648Z,16.47
2022-11-15T04:23:11.103Z,16.46
2022-11-15T04:24:11.492Z,16.45
2022-11-15T04:25:11.015Z,16.44
2022-11-15T04:26:11.355Z,16.44
2022-11-15T04:27:11.593Z,16.41
2022-11-15T04:28:10.908Z,16.38
2022-11-15T04:29:11.042Z,16.39
2022-11-15T04:30:11.518Z,16.37
2022-11-15T04:31:10.694Z,16.35
2022-11-15T04:32:11.114Z,16.37
2022-11-15T04:33:11.542Z,16.37
2022-11-15T04:34:11.076Z,16.36
2022-11-15T04:35:11.538Z,16.36
2022-11-15T04:36:10.878Z,16.33
2022-11-15T04:37:10.879Z,16.27
2022-11-15T04:38:11.227Z,16.23
2022-11-15T04:39:11.354Z,16.23
2022-11-15T04:40:11.638Z,16.24
2022-11-15T04:41:10.974Z,16.25
2022-11-15T04:42:10.917Z,16.22
2022-11-15T04:43:11.072Z,16.21
2022-11-15T04:44:11.277Z,16.14
2022-11-15T04:45:11.844Z,16.08
2022-11-15T04:46:11.025Z,16.00
2022-11-15T04:47:11.138Z,16.02
2022-11-15T04:48:11.479Z,16.00
2022-11-15T04:49:11.600Z,16.02
2022-11-15T04:50:10.905Z,16.00
2022-11-15T04:51:11.812Z,16.01
2022-11-15T04:52:11.355Z,16.01
2022-11-15T04:53:11.593Z,16.02
2022-11-15T04:54:11.728Z,16.04
2022-11-15T04:55:11.093Z,16.06
2022-11-15T04:56:10.944Z,16.05
2022-11-15T04:57:11.013Z,16.05
2022-11-15T04:58:11.310Z,16.04
2022-11-15T04:59:11.553Z,16.04
2022-11-15T05:00:11.307Z,16.05
2022-11-15T05:01:10.924Z,16.06
2022-11-15T05:02:11.367Z,16.01
2022-11-15T05:03:11.597Z,15.99
2022-11-15T05:04:11.058Z,15.99
2022-11-15T05:05:11.621Z,16
2022-11-15T05:06:10.849Z,16.01
2022-11-15T05:07:11.591Z,16.01
2022-11-15T05:08:11.183Z,16
2022-11-15T05:09:11.361Z,15.98
2022-11-15T05:10:11.481Z,15.98
2022-11-15T05:11:10.925Z,15.97
2022-11-15T05:12:11.410Z,15.95
2022-11-15T05:13:11.493Z,15.94
2022-11-15T05:14:11.636Z,15.95
2022-11-15T05:15:11.189Z,15.92
2022-11-15T05:16:11.548Z,15.93
2022-11-15T05:17:10.775Z,15.96
2022-11-15T05:18:11.338Z,15.93
2022-11-15T05:19:11.295Z,15.95
2022-11-15T05:20:11.167Z,15.91
2022-11-15T05:21:11.532Z,15.91
2022-11-15T05:22:10.972Z,15.88
2022-11-15T05:23:11.111Z,15.83
2022-11-15T05:24:11.223Z,15.81
2022-11-15T05:25:11.707Z,15.77
2022-11-15T05:26:11.746Z,15.80
2022-11-15T05:27:10.998Z,15.80
2022-11-15T05:28:10.981Z,15.79
2022-11-15T05:29:11.318Z,15.80
2022-11-15T05:30:11.828Z,15.82
2022-11-15T05:31:11.399Z,15.81
2022-11-15T05:32:11.594Z,15.82
2022-11-15T05:33:10.736Z,15.82
2022-11-15T05:34:11.097Z,15.79
2022-11-15T05:35:11.442Z,15.76
2022-11-15T05:36:11.447Z,15.75
2022-11-15T05:37:11.083Z,15.76
2022-11-15T05:38:11.560Z,15.74
2022-11-15T05:39:11.140Z,15.72
2022-11-15T05:40:11.880Z,15.71
2022-11-15T05:41:11.643Z,15.67
2022-11-15T05:42:12.833Z,15.65
2022-11-15T05:43:11.406Z,15.68
2022-11-15T05:44:11.197Z,15.65
2022-11-15T05:45:12.009Z,15.67
2022-11-15T05:46:11.615Z,15.66
2022-11-15T05:47:12.110Z,15.64
2022-11-15T05:48:11.990Z,15.63
2022-11-15T05:49:11.651Z,15.60
2022-11-15T05:50:11.323Z,15.62
2022-11-15T05:51:11.170Z,15.60
2022-11-15T05:52:12.790Z,15.59
2022-11-15T05:53:11.165Z,15.58
2022-11-15T05:54:12.179Z,15.56
2022-11-15T05:55:12.027Z,15.56
2022-11-15T05:56:11.491Z,15.56
2022-11-15T05:57:11.312Z,15.55
2022-11-15T05:58:11.215Z,15.50
2022-11-15T05:59:10.544Z,15.49
2022-11-15T06:00:11.813Z,15.42
2022-11-15T06:01:11.566Z,15.43
2022-11-15T06:02:11.421Z,15.41
2022-11-15T06:03:11.260Z,15.40
2022-11-15T06:04:10.729Z,15.42
2022-11-15T06:05:11.720Z,15.38
2022-11-15T06:06:16.190Z,15.33
2022-11-15T06:07:11.792Z,15.30
2022-11-15T06:08:11.348Z,15.23
2022-11-15T06:09:12.094Z,15.23
2022-11-15T06:10:11.539Z,15.26
2022-11-15T06:11:11.127Z,15.22
2022-11-15T06:12:12.051Z,15.20
2022-11-15T06:13:11.790Z,15.18
2022-11-15T06:14:11.327Z,15.18
2022-11-15T06:15:12.500Z,15.17
2022-11-15T06:16:10.797Z,15.13
2022-11-15T06:17:11.654Z,15.10
2022-11-15T06:18:10.829Z,15.13
2022-11-15T06:19:11.476Z,15.08
2022-11-15T06:20:11.684Z,15.07
2022-11-15T06:21:11.027Z,15.06
2022-11-15T06:22:11.737Z,15.00
2022-11-15T06:23:11.515Z,14.95
2022-11-15T06:24:11.564Z,14.95
2022-11-15T06:25:11.769Z,14.93
2022-11-15T06:26:11.132Z,14.94
2022-11-15T06:27:12.160Z,14.94
2022-11-15T06:28:11.968Z,14.95
2022-11-15T06:29:11.832Z,14.93
2022-11-15T06:30:11.961Z,14.90
2022-11-15T06:31:12.112Z,14.91
2022-11-15T06:32:11.582Z,14.93
2022-11-15T06:33:12.113Z,14.96
2022-11-15T06:34:11.557Z,14.96
2022-11-15T06:35:11.264Z,14.90
2022-11-15T06:36:17.052Z,14.90
2022-11-15T06:37:12.262Z,14.90
2022-11-15T06:38:10.952Z,14.89
2022-11-15T06:39:11.307Z,14.89
2022-11-15T06:40:11.213Z,14.92
2022-11-15T06:41:11.267Z,14.97
2022-11-15T06:42:10.909Z,14.96
2022-11-15T06:43:11.423Z,14.96
2022-11-15T06:44:12.133Z,14.94
2022-11-15T06:45:10.904Z,14.92
2022-11-15T06:46:11.642Z,14.92
2022-11-15T06:47:12.042Z,14.93
2022-11-15T06:48:11.577Z,14.90
2022-11-15T06:49:11.946Z,14.84
2022-11-15T06:50:11.949Z,14.86
2022-11-15T06:51:12.221Z,14.85
2022-11-15T06:52:11.600Z,14.86
2022-11-15T06:53:12.468Z,14.88
2022-11-15T06:54:11.806Z,14.88
2022-11-15T06:55:12.176Z,14.87
2022-11-15T06:56:11.488Z,14.89
2022-11-15T06:57:12.039Z,14.88
2022-11-15T06:58:12.122Z,14.89
2022-11-15T06:59:11.774Z,14.88
2022-11-15T07:00:12.376Z,14.87
2022-11-15T07:01:11.793Z,14.88
2022-11-15T07:02:11.881Z,14.87
2022-11-15T07:03:12.296Z,14.88
2022-11-15T07:04:11.416Z,14.87
2022-11-15T07:05:11.872Z,14.88
2022-11-15T07:06:11.683Z,14.82
2022-11-15T07:07:11.945Z,14.83
2022-11-15T07:08:10.897Z,14.81
2022-11-15T07:09:12.328Z,14.82
2022-11-15T07:10:11.580Z,14.82
2022-11-15T07:11:11.969Z,14.86
2022-11-15T07:12:12.248Z,14.83
2022-11-15T07:13:11.776Z,14.81
2022-11-15T07:14:11.908Z,14.83
2022-11-15T07:15:12.557Z,14.82
2022-11-15T07:16:11.751Z,14.83
2022-11-15T07:17:12.045Z,14.89
2022-11-15T07:18:12.588Z,14.87
2022-11-15T07:19:11.992Z,14.87
2022-11-15T07:20:11.396Z,14.86
2022-11-15T07:21:11.801Z,14.86
2022-11-15T07:22:11.753Z,14.88
2022-11-15T07:23:12.337Z,14.92
2022-11-15T07:24:11.677Z,14.85
2022-11-15T07:25:12.052Z,14.85
2022-11-15T07:26:12.182Z,14.84
2022-11-15T07:27:11.794Z,14.87
2022-11-15T07:28:12.273Z,14.88
2022-11-15T07:29:11.483Z,14.89
2022-11-15T07:30:14.499Z,14.90
2022-11-15T07:31:11.549Z,14.90
2022-11-15T07:32:11.952Z,14.93
2022-11-15T07:33:12.027Z,14.94
2022-11-15T07:34:12.319Z,14.96
2022-11-15T07:35:11.962Z,14.97
2022-11-15T07:36:12.301Z,14.98
2022-11-15T07:37:11.838Z,14.98
2022-11-15T07:38:12.204Z,14.97
2022-11-15T07:39:11.867Z,14.96
2022-11-15T07:40:12.857Z,14.94
2022-11-15T07:41:12.289Z,15
2022-11-15T07:42:11.983Z,15.02
2022-11-15T07:43:12.423Z,15.03
2022-11-15T07:44:11.732Z,15.02
2022-11-15T07:45:12.156Z,15.06
2022-11-15T07:46:12.011Z,15.09
2022-11-15T07:47:11.644Z,15.09
2022-11-15T07:48:11.651Z,15.10
2022-11-15T07:49:12.142Z,15.14
2022-11-15T07:50:12.569Z,15.16
2022-11-15T07:51:14.162Z,15.20
2022-11-15T07:52:11.859Z,15.21
2022-11-15T07:53:11.769Z,15.22
2022-11-15T07:54:12.266Z,15.22
2022-11-15T07:55:12.280Z,15.25
2022-11-15T07:56:11.821Z,15.26
2022-11-15T07:57:12.406Z,15.26
2022-11-15T07:58:11.625Z,15.24
2022-11-15T07:59:11.713Z,15.26
2022-11-15T08:00:13.295Z,15.25
2022-11-15T08:01:12.184Z,15.27
2022-11-15T08:02:12.448Z,15.31
2022-11-15T08:03:11.859Z,15.31
2022-11-15T08:04:11.847Z,15.31
2022-11-15T08:05:12.451Z,15.29
2022-11-15T08:06:12.294Z,15.27
2022-11-15T08:07:16.844Z,15.33
2022-11-15T08:08:12.338Z,15.33
2022-11-15T08:09:17.054Z,15.36
2022-11-15T08:10:11.418Z,15.33
2022-11-15T08:11:11.137Z,15.38
2022-11-15T08:12:11.147Z,15.40
2022-11-15T08:13:12.042Z,15.39
2022-11-15T08:14:11.188Z,15.36
2022-11-15T08:15:12.149Z,15.36
2022-11-15T08:16:11.636Z,15.40
2022-11-15T08:17:16.596Z,15.36
2022-11-15T08:18:12.116Z,15.40
2022-11-15T08:19:11.986Z,15.44
2022-11-15T08:20:11.688Z,15.48
2022-11-15T08:21:15.650Z,15.47
2022-11-15T08:22:12.066Z,15.45
2022-11-15T08:23:11.525Z,15.43
2022-11-15T08:24:11.330Z,15.44
2022-11-15T08:25:11.838Z,15.47
2022-11-15T08:26:11.576Z,15.49
2022-11-15T08:27:11.317Z,15.49
2022-11-15T08:28:11.446Z,15.47
2022-11-15T08:29:11.806Z,15.46
2022-11-15T08:30:11.706Z,15.45
2022-11-15T08:31:11.459Z,15.46
2022-11-15T08:32:11.359Z,15.52
2022-11-15T08:33:10.988Z,15.52
2022-11-15T08:34:11.816Z,15.53
2022-11-15T08:35:12.239Z,15.53
2022-11-15T08:36:11.106Z,15.53
2022-11-15T08:37:11.872Z,15.60
2022-11-15T08:38:11.552Z,15.60
2022-11-15T08:39:11.506Z,15.65
2022-11-15T08:40:11.801Z,15.71
2022-11-15T08:41:11.534Z,15.75
2022-11-15T08:42:15.705Z,15.77
2022-11-15T08:43:11.972Z,15.78
2022-11-15T08:44:12.101Z,15.82
2022-11-15T08:45:12.196Z,15.88
2022-11-15T08:46:11.756Z,15.89
2022-11-15T08:47:11.221Z,15.93
2022-11-15T08:48:11.864Z,15.97
2022-11-15T08:49:11.637Z,16
2022-11-15T08:50:11.420Z,16.02
2022-11-15T08:51:11.297Z,16.04
2022-11-15T08:52:11.136Z,16.09
2022-11-15T08:53:11.272Z,16.14
2022-11-15T08:54:11.621Z,16.16
2022-11-15T08:55:33.158Z,16.17
2022-11-15T08:56:11.372Z,16.18
2022-11-15T08:57:11.681Z,16.20
2022-11-15T08:58:11.725Z,16.21
2022-11-15T08:59:11.429Z,16.27
2022-11-15T09:00:12.795Z,16.30
2022-11-15T09:01:16.074Z,16.36
2022-11-15T09:02:11.604Z,16.38
2022-11-15T09:03:11.419Z,16.40
2022-11-15T09:04:11.097Z,16.42
2022-11-15T09:05:11.800Z,16.45
2022-11-15T09:06:11.860Z,16.48
2022-11-15T09:07:11.236Z,16.52
2022-11-15T09:08:40.433Z,16.51
2022-11-15T09:09:11.451Z,16.56
2022-11-15T09:10:12.443Z,16.61
2022-11-15T09:12:12.239Z,16.67
2022-11-15T09:13:11.877Z,16.70
2022-11-15T09:14:11.952Z,16.74
2022-11-15T09:15:11.718Z,16.81
2022-11-15T09:16:11.378Z,16.81
2022-11-15T09:17:11.236Z,16.87
2022-11-15T09:18:11.682Z,16.91
2022-11-15T09:19:12.062Z,16.92
2022-11-15T09:20:12.044Z,16.92
2022-11-15T09:21:11.461Z,16.93
2022-11-15T09:22:11.466Z,16.94
2022-11-15T09:23:11.233Z,16.95
2022-11-15T09:24:11.084Z,16.98
2022-11-15T09:25:11.903Z,16.99
2022-11-15T09:26:11.555Z,16.99
2022-11-15T09:27:11.254Z,16.98
2022-11-15T09:28:11.464Z,16.98
2022-11-15T09:29:11.481Z,16.98
2022-11-15T09:30:11.391Z,17.03
2022-11-15T09:31:11.814Z,17.07
2022-11-15T09:32:11.426Z,17.09
2022-11-15T09:33:11.323Z,17.12
2022-11-15T09:34:12.430Z,17.13
2022-11-15T09:35:11.276Z,17.16
2022-11-15T09:36:12.074Z,17.17
2022-11-15T09:37:11.830Z,17.17
2022-11-15T09:38:11.414Z,17.19
2022-11-15T09:39:11.774Z,17.22
2022-11-15T09:40:11.863Z,17.25
2022-11-15T09:41:11.502Z,17.26
2022-11-15T09:42:11.546Z,17.27
2022-11-15T09:43:11.702Z,17.28
2022-11-15T09:44:11.746Z,17.27
2022-11-15T09:45:12.008Z,17.28
2022-11-15T09:46:11.602Z,17.28
2022-11-15T09:47:11.468Z,17.28
2022-11-15T09:48:11.076Z,17.27
2022-11-15T09:49:11.194Z,17.27
2022-11-15T09:50:11.017Z,17.31
2022-11-15T09:51:11.770Z,17.35
2022-11-15T09:52:11.592Z,17.40
2022-11-15T09:53:12.550Z,17.39
2022-11-15T09:54:51.578Z,17.38
2022-11-15T09:55:11.415Z,17.39
2022-11-15T09:56:11.584Z,17.40
2022-11-15T09:57:16.013Z,17.44
2022-11-15T09:58:11.472Z,17.45
2022-11-15T09:59:11.429Z,17.51
2022-11-15T10:00:44.076Z,17.54
2022-11-15T10:01:12.167Z,17.56
2022-11-15T10:02:12.203Z,17.61
2022-11-15T10:03:11.382Z,17.63
2022-11-15T10:04:12.107Z,17.65
2022-11-15T10:05:11.334Z,17.64
2022-11-15T10:06:11.098Z,17.62
2022-11-15T10:07:11.350Z,17.68
2022-11-15T10:08:10.552Z,17.69
2022-11-15T10:09:10.862Z,17.72
2022-11-15T10:10:11.917Z,17.76
2022-11-15T10:11:36.619Z,17.78
2022-11-15T10:12:11.535Z,17.79
2022-11-15T10:13:11.680Z,17.79
2022-11-15T10:14:11.173Z,17.80
2022-11-15T10:15:12.134Z,17.79
2022-11-15T10:16:11.261Z,17.80
2022-11-15T10:17:11.510Z,17.82
2022-11-15T10:18:10.754Z,17.79
2022-11-15T10:19:10.991Z,17.80
2022-11-15T10:20:11.510Z,17.82
2022-11-15T10:21:11.059Z,17.80
2022-11-15T10:22:12.008Z,17.78
2022-11-15T10:23:11.385Z,17.79
2022-11-15T10:24:11.554Z,17.80
2022-11-15T10:25:11.783Z,17.80
2022-11-15T10:26:11.305Z,17.83
2022-11-15T10:27:11.403Z,17.88
2022-11-15T10:28:11.570Z,17.90
2022-11-15T10:29:11.742Z,17.89
2022-11-15T10:30:12.156Z,17.88
2022-11-15T10:31:14.387Z,17.90
2022-11-15T10:32:16.730Z,17.89
2022-11-15T10:33:11.760Z,17.88
2022-11-15T10:34:11.553Z,17.92
2022-11-15T10:35:11.526Z,17.94
2022-11-15T10:36:17.230Z,17.96
2022-11-15T10:37:11.946Z,17.97
2022-11-15T10:38:11.661Z,17.98
2022-11-15T10:39:11.855Z,17.94
2022-11-15T10:40:11.573Z,17.96
2022-11-15T10:41:11.656Z,17.99
2022-11-15T10:42:15.330Z,18.00
2022-11-15T10:43:11.972Z,18.00
2022-11-15T10:44:12.101Z,18.01
2022-11-15T10:45:11.614Z,18.02
2022-11-15T10:46:39.415Z,18.04
2022-11-15T10:47:11.611Z,18.07
2022-11-15T10:48:11.620Z,18.10
2022-11-15T10:49:11.562Z,18.15
2022-11-15T10:50:11.579Z,18.15
2022-11-15T10:51:11.666Z,18.20
2022-11-15T10:52:25.301Z,18.18
2022-11-15T10:53:11.593Z,18.18
2022-11-15T10:54:25.677Z,18.21
2022-11-15T10:55:11.416Z,18.22
2022-11-15T10:56:25.477Z,18.21
2022-11-15T10:57:14.034Z,18.22
2022-11-15T10:58:25.553Z,18.21
2022-11-15T10:59:11.831Z,18.21
2022-11-15T11:00:12.483Z,18.20
2022-11-15T11:01:11.962Z,18.20
2022-11-15T11:02:11.916Z,18.19
2022-11-15T11:03:11.745Z,18.21
2022-11-15T11:04:12.536Z,18.23
2022-11-15T11:05:12.269Z,18.26
2022-11-15T11:06:12.027Z,18.24
2022-11-15T11:07:11.903Z,18.23
2022-11-15T11:08:11.561Z,18.25
2022-11-15T11:09:12.160Z,18.27
2022-11-15T11:10:36.148Z,18.26
2022-11-15T11:11:11.648Z,18.23
2022-11-15T11:12:12.516Z,18.25
2022-11-15T11:13:12.365Z,18.22
2022-11-15T11:14:11.969Z,18.22
2022-11-15T11:15:12.094Z,18.19
2022-11-15T11:16:12.263Z,18.17
2022-11-15T11:17:11.760Z,18.15
2022-11-15T11:18:12.195Z,18.13
2022-11-15T11:19:12.009Z,18.11
2022-11-15T11:20:12.028Z,18.09
2022-11-15T11:21:12.091Z,18.11
2022-11-15T11:22:11.670Z,18.11
2022-11-15T11:23:11.440Z,18.11
2022-11-15T11:24:11.975Z,18.14
2022-11-15T11:25:12.226Z,18.16
2022-11-15T11:26:12.020Z,18.17
2022-11-15T11:27:12.795Z,18.20
2022-11-15T11:28:12.368Z,18.20
2022-11-15T11:29:11.913Z,18.21
2022-11-15T11:30:13.077Z,18.26
2022-11-15T11:31:11.862Z,18.25
2022-11-15T11:32:12.510Z,18.27
2022-11-15T11:33:12.321Z,18.29
2022-11-15T11:34:11.242Z,18.29
2022-11-15T11:35:12.109Z,18.27
2022-11-15T11:36:11.691Z,18.29
2022-11-15T11:37:11.404Z,18.29
2022-11-15T11:38:11.305Z,18.32
2022-11-15T11:39:11.440Z,18.35
2022-11-15T11:40:11.791Z,18.32
2022-11-15T11:41:11.499Z,18.32
2022-11-15T11:42:11.563Z,18.29
2022-11-15T11:43:11.317Z,18.32
2022-11-15T11:44:11.432Z,18.31
2022-11-15T11:45:11.522Z,18.29
2022-11-15T11:46:11.619Z,18.31
2022-11-15T11:47:11.233Z,18.31
2022-11-15T11:48:12.079Z,18.31
2022-11-15T11:49:10.988Z,18.30
2022-11-15T11:50:11.385Z,18.29
2022-11-15T11:51:11.975Z,18.30
2022-11-15T11:52:11.683Z,18.29
2022-11-15T11:53:13.694Z,18.30
2022-11-15T11:54:11.453Z,18.28
2022-11-15T11:55:11.500Z,18.25
2022-11-15T11:56:12.053Z,18.28
2022-11-15T11:57:11.831Z,18.29
2022-11-15T11:58:11.751Z,18.29
2022-11-15T11:59:11.542Z,18.31
2022-11-15T12:00:12.182Z,18.33
2022-11-15T12:01:12.920Z,18.31
2022-11-15T12:02:12.094Z,18.30
2022-11-15T12:03:11.665Z,18.33
2022-11-15T12:04:11.825Z,18.36
2022-11-15T12:05:11.785Z,18.37
2022-11-15T12:06:11.612Z,18.36
2022-11-15T12:07:11.725Z,18.35
2022-11-15T12:08:11.778Z,18.34
2022-11-15T12:09:11.742Z,18.35
2022-11-15T12:10:11.741Z,18.33
2022-11-15T12:11:11.817Z,18.37
2022-11-15T12:12:11.803Z,18.35
2022-11-15T12:13:11.391Z,18.40
2022-11-15T12:14:11.500Z,18.42
2022-11-15T12:15:11.349Z,18.43
2022-11-15T12:16:11.337Z,18.47
2022-11-15T12:17:11.406Z,18.47
2022-11-15T12:18:11.322Z,18.49
2022-11-15T12:19:11.074Z,18.52
2022-11-15T12:20:12.287Z,18.54
2022-11-15T12:21:11.617Z,18.56
2022-11-15T12:22:11.926Z,18.59
2022-11-15T12:23:12.279Z,18.60
2022-11-15T12:24:11.341Z,18.60
2022-11-15T12:25:11.516Z,18.64
2022-11-15T12:26:11.371Z,18.64
2022-11-15T12:27:11.569Z,18.64
2022-11-15T12:28:11.274Z,18.71
2022-11-15T12:29:11.296Z,18.73
2022-11-15T12:30:12.383Z,18.73
2022-11-15T12:31:11.932Z,18.72
2022-11-15T12:32:11.887Z,18.75
2022-11-15T12:33:11.576Z,18.76
2022-11-15T12:34:11.526Z,18.81
2022-11-15T12:35:11.487Z,18.86
2022-11-15T12:36:11.188Z,18.88
2022-11-15T12:37:12.189Z,18.95
2022-11-15T12:38:11.196Z,18.97
2022-11-15T12:39:11.343Z,19.04
2022-11-15T12:40:12.017Z,19.07
2022-11-15T12:41:11.710Z,19.09
2022-11-15T12:42:12.043Z,19.12
2022-11-15T12:43:11.973Z,19.15
2022-11-15T12:44:11.447Z,19.18
2022-11-15T12:45:11.723Z,19.21
2022-11-15T12:46:11.349Z,19.25
2022-11-15T12:47:12.320Z,19.28
2022-11-15T12:48:11.972Z,19.25
2022-11-15T12:49:11.947Z,19.20
2022-11-15T12:50:11.720Z,19.14
2022-11-15T12:51:11.559Z,19.10
2022-11-15T12:52:11.610Z,19.08
2022-11-15T12:53:11.509Z,19.05
2022-11-15T12:54:11.195Z,19.03